Aberdeen, SD (57401)

10:42 PM CST on February 11, 2016 (GMT -0600)
St. Mary's Church | | Change Station
CLOSE
Current Station
Personal Weather Station
Location: Aberdeen, SD
Elevation: 1302 ft
Nearby Weather Stations

Elev 1302 ft 45.47 °N, 98.48 °W | Updated 9 seconds ago

Overcast
Overcast
15.3 °F
Feels Like 15 °F
N
2.0
Wind Variable Wind from NNW
Gusts 5.0 mph

Today
High -- | Low -- °F
--% Chance of Precip.
Yesterday
High -- | Low -- °F
Precip. -- in
Pressure 30.35 in
Visibility 10.0 miles
Clouds Overcast 2000 ft
Windchill 15 °F
Dew Point 12 °F
Humidity 86%
Rainfall 0.00 in
Snow Depth Not available.
7:42 AM 5:54 PM
Waxing Crescent, 17% visible
METAR KABR 120353Z AUTO 35007KT 10SM OVC020 M08/M11 A3028 RMK AO2 SLP278 T10831111
Pressure 30.35 in
Visibility 10.0 miles
Clouds Overcast 2000 ft
Windchill 15 °F
Dew Point 12 °F
Humidity 86%
Rainfall 0.00 in
Snow Depth Not available.
7:42 AM 5:54 PM
Waxing Crescent, 17% visible
METAR KABR 120353Z AUTO 35007KT 10SM OVC020 M08/M11 A3028 RMK AO2 SLP278 T10831111

10-Day Weather Forecast

Almanac

Astronomy

Feb. 11, 2016 Rise Set
Actual Time
Civil Twilight
Nautical Twilight
Astronomical Twilight
Moon
Length of Visible Light
Length of Day
Tomorrow will be .
, % of the Moon is Illuminated

Today's Extremes

State Highs State Lows

Community

WunderPhotos

Upload Photos

1,892,268 photos uploaded!

WunderBlog® & News

Nearby

Air Quality

  Air Quality AQ Index Pollutant
Not available.

Snow Depth

Station Depth Elevation

Earthquake Activity

City Distance Mag. Time & Date
Minimum magnitude displayed is 2.5.

Coastal Water Temperatures

Place Temperature

Stations

Nearby Weather Stations

Station Location Temp. Windchill Dew Point Humidity Wind Precip. Elev Updated Type
                   

Watches & Warnings

There are currently no watches in effect.